createdAt,value
2023-02-22T00:00:59.871Z,100.00
2023-02-22T00:03:32.431Z,100.00
2023-02-22T00:06:05.216Z,100.00
2023-02-22T00:08:36.626Z,100.00
2023-02-22T00:11:09.079Z,100.00
2023-02-22T00:13:37.874Z,100.00
2023-02-22T00:16:05.592Z,100.00
2023-02-22T00:18:32.687Z,100.00
2023-02-22T00:21:01.422Z,100.00
2023-02-22T00:23:31.114Z,100.00
2023-02-22T00:26:00.180Z,100.00
2023-02-22T00:28:27.955Z,100.00
2023-02-22T00:30:55.103Z,100.00
2023-02-22T00:33:23.254Z,100.00
2023-02-22T00:35:50.487Z,100.00
2023-02-22T00:38:19.534Z,100.00
2023-02-22T00:40:46.623Z,100.00
2023-02-22T00:43:14.365Z,100.00
2023-02-22T00:45:42.440Z,100.00
2023-02-22T00:48:10.472Z,100.00
2023-02-22T00:50:37.990Z,100.00
2023-02-22T00:53:07.346Z,100.00
2023-02-22T00:55:36.734Z,100.00
2023-02-22T00:58:05.270Z,100.00
2023-02-22T01:00:39.932Z,100.00
2023-02-22T01:03:10.550Z,100.00
2023-02-22T01:05:38.816Z,100.00
2023-02-22T01:08:08.549Z,100.00
2023-02-22T01:10:37.043Z,100.00
2023-02-22T01:13:08.897Z,100.00
2023-02-22T01:15:39.327Z,100.00
2023-02-22T01:18:08.020Z,100.00
2023-02-22T01:20:35.266Z,100.00
2023-02-22T01:23:07.105Z,100.00
2023-02-22T01:25:35.057Z,100.00
2023-02-22T01:28:03.574Z,100.00
2023-02-22T01:30:34.298Z,100.00
2023-02-22T01:33:04.025Z,100.00
2023-02-22T01:35:35.010Z,100.00
2023-02-22T01:38:02.327Z,100.00
2023-02-22T01:40:35.908Z,100.00
2023-02-22T01:43:15.576Z,100.00
2023-02-22T01:46:00.761Z,100.00
2023-02-22T01:48:45.877Z,100.00
2023-02-22T01:51:28.287Z,100.00
2023-02-22T01:53:59.247Z,100.00
2023-02-22T01:56:29.427Z,100.00
2023-02-22T01:59:06.899Z,100.00
2023-02-22T02:01:36.937Z,100.00
2023-02-22T02:04:10.624Z,100.00
2023-02-22T02:06:38.843Z,100.00
2023-02-22T02:09:17.788Z,100.00
2023-02-22T02:11:46.320Z,100.00
2023-02-22T02:14:14.331Z,100.00
2023-02-22T02:16:45.884Z,100.00
2023-02-22T02:19:46.239Z,100.00
2023-02-22T02:22:47.126Z,100.00
2023-02-22T02:25:54.679Z,100.00
2023-02-22T02:28:51.087Z,100.00
2023-02-22T02:31:54.994Z,100.00
2023-02-22T02:34:35.990Z,100.00
2023-02-22T02:37:15.648Z,100.00
2023-02-22T02:39:57.515Z,100.00
2023-02-22T02:42:34.357Z,100.00
2023-02-22T02:45:18.573Z,100.00
2023-02-22T02:47:53.490Z,100.00
2023-02-22T02:50:25.594Z,100.00
2023-02-22T02:52:55.801Z,100.00
2023-02-22T02:55:23.525Z,100.00
2023-02-22T02:57:50.485Z,100.00
2023-02-22T03:00:24.977Z,100.00
2023-02-22T03:03:06.252Z,100.00
2023-02-22T03:06:40.439Z,100.00
2023-02-22T03:09:21.522Z,100.00
2023-02-22T03:12:08.361Z,100.00
2023-02-22T03:14:38.676Z,100.00
2023-02-22T03:17:19.249Z,100.00
2023-02-22T03:19:52.580Z,100.00
2023-02-22T03:22:48.112Z,100.00
2023-02-22T03:25:34.205Z,100.00
2023-02-22T03:28:07.622Z,100.00
2023-02-22T03:30:50.969Z,100.00
2023-02-22T03:33:44.734Z,100.00
2023-02-22T03:36:21.115Z,100.00
2023-02-22T03:38:50.310Z,100.00
2023-02-22T03:41:25.176Z,100.00
2023-02-22T03:44:14.240Z,100.00
2023-02-22T03:46:42.894Z,100.00
2023-02-22T03:49:22.224Z,100.00
2023-02-22T03:51:49.212Z,100.00
2023-02-22T03:54:16.739Z,100.00
2023-02-22T03:57:24.972Z,100.00
2023-02-22T03:59:51.880Z,100.00
2023-02-22T04:02:19.560Z,100.00
2023-02-22T04:04:47.607Z,100.00
2023-02-22T04:07:14.988Z,100.00
2023-02-22T04:09:41.969Z,100.00
2023-02-22T04:12:09.063Z,100.00
2023-02-22T04:14:36.092Z,100.00
2023-02-22T04:17:03.065Z,100.00
2023-02-22T04:19:30.064Z,100.00
2023-02-22T04:21:57.065Z,100.00
2023-02-22T04:24:24.184Z,100.00
2023-02-22T04:26:51.109Z,100.00
2023-02-22T04:29:18.059Z,100.00
2023-02-22T04:31:45.159Z,100.00
2023-02-22T04:34:12.369Z,100.00
2023-02-22T04:36:39.426Z,100.00
2023-02-22T04:39:06.364Z,100.00
2023-02-22T04:41:34.544Z,100.00
2023-02-22T04:44:01.535Z,100.00
2023-02-22T04:46:28.700Z,100.00
2023-02-22T04:48:55.722Z,100.00
2023-02-22T04:51:22.678Z,100.00
2023-02-22T04:53:49.747Z,100.00
2023-02-22T04:56:20.351Z,100.00
2023-02-22T04:58:47.924Z,100.00
2023-02-22T05:01:16.893Z,100.00
2023-02-22T05:03:44.361Z,100.00
2023-02-22T05:06:12.492Z,100.00
2023-02-22T05:08:39.476Z,100.00
2023-02-22T05:11:06.881Z,100.00
2023-02-22T05:13:33.793Z,100.00
2023-02-22T05:16:00.899Z,100.00
2023-02-22T05:18:28.026Z,100.00
2023-02-22T05:20:55.008Z,100.00
2023-02-22T05:23:21.931Z,100.00
2023-02-22T05:25:48.997Z,100.00
2023-02-22T05:28:16.761Z,100.00
2023-02-22T05:30:43.843Z,100.00
2023-02-22T05:33:11.373Z,100.00
2023-02-22T05:35:38.298Z,100.00
2023-02-22T05:38:06.839Z,100.00
2023-02-22T05:40:35.028Z,100.00
2023-02-22T05:43:02.889Z,100.00
2023-02-22T05:45:38.749Z,100.00
2023-02-22T05:48:15.949Z,100.00
2023-02-22T05:50:45.659Z,100.00
2023-02-22T05:53:12.641Z,100.00
2023-02-22T05:55:40.253Z,100.00
2023-02-22T05:58:07.232Z,100.00
2023-02-22T06:00:34.195Z,100.00
2023-02-22T06:03:08.097Z,100.00
2023-02-22T06:05:36.325Z,100.00
2023-02-22T06:08:05.956Z,100.00
2023-02-22T06:10:33.733Z,100.00
2023-02-22T06:13:03.473Z,100.00
2023-02-22T06:15:30.639Z,100.00
2023-02-22T06:17:58.883Z,100.00
2023-02-22T06:20:28.979Z,100.00
2023-02-22T06:22:58.517Z,100.00
2023-02-22T06:25:31.501Z,100.00
2023-02-22T06:28:00.382Z,100.00
2023-02-22T06:30:28.997Z,100.00
2023-02-22T06:32:56.408Z,100.00
2023-02-22T06:35:23.748Z,100.00
2023-02-22T06:37:51.009Z,100.00
2023-02-22T06:40:18.305Z,100.00
2023-02-22T06:42:49.204Z,100.00
2023-02-22T06:45:18.241Z,100.00
2023-02-22T06:47:45.983Z,100.00
2023-02-22T06:52:53.177Z,100.00
2023-02-22T06:55:27.415Z,100.00
2023-02-22T06:57:54.441Z,100.00
2023-02-22T07:00:25.262Z,100.00
2023-02-22T07:02:53.902Z,100.00
2023-02-22T07:05:23.063Z,100.00
2023-02-22T07:07:55.501Z,100.00
2023-02-22T07:10:30.093Z,100.00
2023-02-22T07:12:57.295Z,100.00
2023-02-22T07:15:28.061Z,100.00
2023-02-22T07:17:55.644Z,100.00
2023-02-22T07:20:24.690Z,100.00
2023-02-22T07:22:52.045Z,100.00
2023-02-22T07:25:20.179Z,100.00
2023-02-22T07:27:48.685Z,100.00
2023-02-22T07:30:20.846Z,100.00
2023-02-22T07:32:48.122Z,100.00
2023-02-22T07:35:28.623Z,100.00
2023-02-22T07:37:58.591Z,100.00
2023-02-22T07:40:27.125Z,100.00
2023-02-22T07:43:01.305Z,100.00
2023-02-22T07:45:34.720Z,100.00
2023-02-22T07:48:04.203Z,100.00
2023-02-22T07:50:33.444Z,100.00
2023-02-22T07:53:06.632Z,100.00
2023-02-22T07:55:34.694Z,100.00
2023-02-22T07:58:05.930Z,100.00
2023-02-22T08:00:39.321Z,100.00
2023-02-22T08:03:14.720Z,100.00
2023-02-22T08:05:51.641Z,100.00
2023-02-22T08:08:20.065Z,100.00
2023-02-22T08:10:48.733Z,100.00
2023-02-22T08:13:16.353Z,100.00
2023-02-22T08:15:44.326Z,100.00
2023-02-22T08:18:15.753Z,100.00
2023-02-22T08:20:45.283Z,100.00
2023-02-22T08:23:14.484Z,100.00
2023-02-22T08:25:41.947Z,100.00
2023-02-22T08:28:13.204Z,100.00
2023-02-22T08:30:42.957Z,100.00
2023-02-22T08:33:14.600Z,100.00
2023-02-22T08:35:42.366Z,100.00
2023-02-22T08:38:27.543Z,100.00
2023-02-22T08:40:55.302Z,100.00
2023-02-22T08:43:23.164Z,100.00
2023-02-22T08:45:52.236Z,100.00
2023-02-22T08:48:20.369Z,100.00
2023-02-22T08:50:47.435Z,100.00
2023-02-22T08:53:16.515Z,100.00
2023-02-22T08:55:44.198Z,100.00
2023-02-22T08:58:12.200Z,100.00
2023-02-22T09:00:41.157Z,100.00
2023-02-22T09:03:13.427Z,100.00
2023-02-22T09:05:41.825Z,100.00
2023-02-22T09:08:08.960Z,100.00
2023-02-22T09:10:36.397Z,100.00
2023-02-22T09:13:05.844Z,100.00
2023-02-22T09:15:36.002Z,100.00
2023-02-22T09:18:04.393Z,100.00
2023-02-22T09:20:31.663Z,100.00
2023-02-22T09:22:59.621Z,100.00
2023-02-22T09:25:27.330Z,100.00
2023-02-22T09:27:55.454Z,100.00
2023-02-22T09:30:32.846Z,100.00
2023-02-22T09:33:07.126Z,100.00
2023-02-22T09:35:36.546Z,100.00
2023-02-22T09:38:08.079Z,100.00
2023-02-22T09:40:45.080Z,100.00
2023-02-22T09:43:21.069Z,100.00
2023-02-22T09:46:22.490Z,100.00
2023-02-22T09:49:06.680Z,100.00
2023-02-22T09:51:44.968Z,100.00
2023-02-22T09:54:43.453Z,100.00
2023-02-22T09:57:21.708Z,100.00
2023-02-22T10:00:13.861Z,100.00
2023-02-22T10:03:33.154Z,100.00
2023-02-22T10:06:06.727Z,100.00
2023-02-22T10:08:34.642Z,100.00
2023-02-22T10:11:19.964Z,100.00
2023-02-22T10:14:24.405Z,100.00
2023-02-22T10:17:06.856Z,100.00
2023-02-22T10:19:54.704Z,100.00
2023-02-22T10:22:59.233Z,99.65
2023-02-22T10:25:29.003Z,98.89
2023-02-22T10:28:03.863Z,97.76
2023-02-22T10:30:39.902Z,97.91
2023-02-22T10:33:21.536Z,96.73
2023-02-22T10:35:51.666Z,95.37
2023-02-22T10:38:24.449Z,95.18
2023-02-22T10:41:20.097Z,96.27
2023-02-22T10:43:47.265Z,93.99
2023-02-22T10:46:18.205Z,93.01
2023-02-22T10:48:49.991Z,92.37
2023-02-22T10:51:17.384Z,91.86
2023-02-22T10:53:45.826Z,91.02
2023-02-22T10:56:25.767Z,91.16
2023-02-22T10:59:04.310Z,88.83
2023-02-22T11:01:34.607Z,88.92
2023-02-22T11:04:15.834Z,87.94
2023-02-22T11:07:00.781Z,86.50
2023-02-22T11:09:29.134Z,85.09
2023-02-22T11:12:19.693Z,84.50
2023-02-22T11:14:46.857Z,85.04
2023-02-22T11:17:28.963Z,83.45
2023-02-22T11:19:56.710Z,83.56
2023-02-22T11:22:41.463Z,82.60
2023-02-22T11:25:09.457Z,81.88
2023-02-22T11:27:47.118Z,81.98
2023-02-22T11:30:29.695Z,81.07
2023-02-22T11:33:11.179Z,81.19
2023-02-22T11:35:52.909Z,81.31
2023-02-22T11:38:32.764Z,80.97
2023-02-22T11:41:23.110Z,81.25
2023-02-22T11:43:52.071Z,81.59
2023-02-22T11:46:23.211Z,81.36
2023-02-22T11:49:09.752Z,80.93
2023-02-22T11:51:57.977Z,80.01
2023-02-22T11:54:46.377Z,80.63
2023-02-22T11:57:50.428Z,79.32
2023-02-22T12:00:48.576Z,79.59
2023-02-22T12:03:51.650Z,78.56
2023-02-22T12:06:54.535Z,77.95
2023-02-22T12:09:36.933Z,77.77
2023-02-22T12:12:27.080Z,77.23
2023-02-22T12:15:09.030Z,77.77
2023-02-22T12:18:29.039Z,76.77
2023-02-22T12:21:01.758Z,76.16
2023-02-22T12:23:46.405Z,75.75
2023-02-22T12:26:53.801Z,76.48
2023-02-22T12:29:47.510Z,75.15
2023-02-22T12:32:48.979Z,74.48
2023-02-22T12:35:54.089Z,74.56
2023-02-22T12:38:46.659Z,74.21
2023-02-22T12:41:29.978Z,73.33
2023-02-22T12:44:14.484Z,73.32
2023-02-22T12:46:53.689Z,72.29
2023-02-22T12:49:38.951Z,72.27
2023-02-22T12:52:25.979Z,71.33
2023-02-22T12:55:06.589Z,72.26
2023-02-22T12:58:16.308Z,71.88
2023-02-22T13:00:57.336Z,72.19
2023-02-22T13:03:39.053Z,71.53
2023-02-22T13:06:42.616Z,71.93
2023-02-22T13:09:33.412Z,72.02
2023-02-22T13:12:21.156Z,71.04
2023-02-22T13:15:14.467Z,71.14
2023-02-22T13:18:02.808Z,70.29
2023-02-22T13:20:42.281Z,69.26
2023-02-22T13:23:31.529Z,69.25
2023-02-22T13:26:11.406Z,69.17
2023-02-22T13:29:05.110Z,69.70
2023-02-22T13:32:10.217Z,67.07
2023-02-22T13:34:56.907Z,66.07
2023-02-22T13:38:19.286Z,65.19
2023-02-22T13:41:31.809Z,64.97
2023-02-22T13:44:33.277Z,65.36
2023-02-22T13:47:44.131Z,65.14
2023-02-22T13:50:29.751Z,64.40
2023-02-22T13:52:59.812Z,64.70
2023-02-22T13:55:34.702Z,65.65
2023-02-22T13:58:11.983Z,64.56
2023-02-22T14:00:42.551Z,63.91
2023-02-22T14:03:16.684Z,63.96
2023-02-22T14:05:46.535Z,64.14
2023-02-22T14:08:19.653Z,63.68
2023-02-22T14:10:56.471Z,64.97
2023-02-22T14:13:55.710Z,64.41
2023-02-22T14:16:34.355Z,64.43
2023-02-22T14:19:09.390Z,63.13
2023-02-22T14:21:36.564Z,62.62
2023-02-22T14:24:12.614Z,63.42
2023-02-22T14:26:41.323Z,62.86
2023-02-22T14:29:08.280Z,62.91
2023-02-22T14:31:43.460Z,63.15
2023-02-22T14:34:13.024Z,63.48
2023-02-22T14:37:08.562Z,63.00
2023-02-22T14:39:46.147Z,63.51
2023-02-22T14:42:24.452Z,63.49
2023-02-22T14:45:05.031Z,63.81
2023-02-22T14:48:04.027Z,64.19
2023-02-22T14:50:52.872Z,63.61
2023-02-22T14:53:44.451Z,64.52
2023-02-22T14:56:25.565Z,65.41
2023-02-22T14:59:08.532Z,64.89
2023-02-22T15:01:53.189Z,64.70
2023-02-22T15:04:31.035Z,65.21
2023-02-22T15:07:01.231Z,65.45
2023-02-22T15:09:34.703Z,65.85
2023-02-22T15:12:05.456Z,65.54
2023-02-22T15:14:39.023Z,65.33
2023-02-22T15:17:18.242Z,65.41
2023-02-22T15:19:48.874Z,65.80
2023-02-22T15:22:26.660Z,65.70
2023-02-22T15:25:03.910Z,66.83
2023-02-22T15:27:37.238Z,66.96
2023-02-22T15:30:09.921Z,67.09
2023-02-22T15:32:50.144Z,67.43
2023-02-22T15:35:26.502Z,66.98
2023-02-22T15:38:18.271Z,67.49
2023-02-22T15:40:45.708Z,68.25
2023-02-22T15:43:20.303Z,68.47
2023-02-22T15:45:47.656Z,68.67
2023-02-22T15:48:15.981Z,69.12
2023-02-22T15:51:13.977Z,68.91
2023-02-22T15:53:51.626Z,69.23
2023-02-22T15:56:31.224Z,69.09
2023-02-22T15:59:12.796Z,69.71
2023-02-22T16:01:46.562Z,70.28
2023-02-22T16:04:27.281Z,70.69
2023-02-22T16:07:16.968Z,71.03
2023-02-22T16:09:50.456Z,71.15
2023-02-22T16:12:28.178Z,71.60
2023-02-22T16:15:00.751Z,71.78
2023-02-22T16:17:37.592Z,72.04
2023-02-22T16:20:14.454Z,73.12
2023-02-22T16:22:49.446Z,73.28
2023-02-22T16:25:19.533Z,73.37
2023-02-22T16:27:52.737Z,73.61
2023-02-22T16:30:25.064Z,73.57
2023-02-22T16:32:55.619Z,73.94
2023-02-22T16:35:29.090Z,74.48
2023-02-22T16:38:02.917Z,74.60
2023-02-22T16:40:47.080Z,74.72
2023-02-22T16:46:11.911Z,76.31
2023-02-22T16:48:46.070Z,76.86
2023-02-22T16:51:27.239Z,77.33
2023-02-22T16:53:56.014Z,78.16
2023-02-22T16:56:31.254Z,78.60
2023-02-22T16:59:06.773Z,78.88
2023-02-22T17:01:35.336Z,79.15
2023-02-22T17:04:02.849Z,79.83
2023-02-22T17:06:31.393Z,79.82
2023-02-22T17:09:04.031Z,80.66
2023-02-22T17:11:31.079Z,80.88
2023-02-22T17:13:58.292Z,81.29
2023-02-22T17:16:25.292Z,81.44
2023-02-22T17:18:52.666Z,82.15
2023-02-22T17:21:19.717Z,82.31
2023-02-22T17:23:47.525Z,82.81
2023-02-22T17:26:17.077Z,83.08
2023-02-22T17:28:44.973Z,84.33
2023-02-22T17:31:22.033Z,85.17
2023-02-22T17:33:51.477Z,85.64
2023-02-22T17:36:19.389Z,85.76
2023-02-22T17:38:46.419Z,86.15
2023-02-22T17:41:13.471Z,86.63
2023-02-22T17:43:40.456Z,86.58
2023-02-22T17:46:08.668Z,86.79
2023-02-22T17:48:36.226Z,86.68
2023-02-22T17:51:10.778Z,87.02
2023-02-22T17:53:39.060Z,87.25
2023-02-22T17:56:20.827Z,87.66
2023-02-22T17:58:55.427Z,87.71
2023-02-22T18:01:41.020Z,88.08
2023-02-22T18:04:17.006Z,88.07
2023-02-22T18:06:44.625Z,88.34
2023-02-22T18:09:12.121Z,88.48
2023-02-22T18:11:39.727Z,88.75
2023-02-22T18:14:10.179Z,89.63
2023-02-22T18:16:39.092Z,89.70
2023-02-22T18:19:06.646Z,89.43
2023-02-22T18:21:33.701Z,89.74
2023-02-22T18:24:00.796Z,90.47
2023-02-22T18:26:28.083Z,90.96
2023-02-22T18:28:57.088Z,90.67
2023-02-22T18:31:24.396Z,90.86
2023-02-22T18:33:53.157Z,91.44
2023-02-22T18:36:23.281Z,91.61
2023-02-22T18:38:54.230Z,91.84
2023-02-22T18:41:27.061Z,91.99
2023-02-22T18:44:00.049Z,91.93
2023-02-22T18:46:27.790Z,92.30
2023-02-22T18:48:56.722Z,92.53
2023-02-22T18:51:24.758Z,93.59
2023-02-22T18:53:56.973Z,93.94
2023-02-22T18:56:29.506Z,94.84
2023-02-22T18:59:02.465Z,95.22
2023-02-22T19:01:31.446Z,95.56
2023-02-22T19:04:00.379Z,95.83
2023-02-22T19:06:27.464Z,96.56
2023-02-22T19:08:54.596Z,97.00
2023-02-22T19:11:24.475Z,97.64
2023-02-22T19:13:56.298Z,98.26
2023-02-22T19:16:26.346Z,98.52
2023-02-22T19:18:57.498Z,99.13
2023-02-22T19:21:28.073Z,100.00
2023-02-22T19:23:56.026Z,100.00
2023-02-22T19:26:28.967Z,100.00
2023-02-22T19:28:58.904Z,100.00
2023-02-22T19:31:31.077Z,100.00
2023-02-22T19:34:06.080Z,100.00
2023-02-22T19:36:33.211Z,100.00
2023-02-22T19:39:03.080Z,100.00
2023-02-22T19:41:31.228Z,100.00
2023-02-22T19:43:59.095Z,100.00
2023-02-22T19:46:26.291Z,100.00
2023-02-22T19:49:16.286Z,100.00
2023-02-22T19:51:53.731Z,100.00
2023-02-22T19:54:22.243Z,100.00
2023-02-22T19:56:51.170Z,100.00
2023-02-22T19:59:23.724Z,100.00
2023-02-22T20:01:54.889Z,100.00
2023-02-22T20:04:23.115Z,100.00
2023-02-22T20:06:54.929Z,100.00
2023-02-22T20:09:47.341Z,100.00
2023-02-22T20:12:14.704Z,100.00
2023-02-22T20:14:43.429Z,100.00
2023-02-22T20:17:10.549Z,100.00
2023-02-22T20:19:41.160Z,100.00
2023-02-22T20:22:08.571Z,100.00
2023-02-22T20:24:35.611Z,100.00
2023-02-22T20:27:02.663Z,100.00
2023-02-22T20:29:29.957Z,100.00
2023-02-22T20:31:59.960Z,100.00
2023-02-22T20:34:31.448Z,100.00
2023-02-22T20:36:59.154Z,100.00
2023-02-22T20:39:26.430Z,100.00
2023-02-22T20:41:54.650Z,100.00
2023-02-22T20:44:22.750Z,100.00
2023-02-22T20:46:49.819Z,100.00
2023-02-22T20:49:20.214Z,100.00
2023-02-22T20:51:49.973Z,100.00
2023-02-22T20:54:17.864Z,100.00
2023-02-22T20:56:46.741Z,100.00
2023-02-22T20:59:17.322Z,100.00
2023-02-22T21:01:44.645Z,100.00
2023-02-22T21:04:12.153Z,100.00
2023-02-22T21:06:40.454Z,100.00
2023-02-22T21:09:15.017Z,100.00
2023-02-22T21:11:42.954Z,100.00
2023-02-22T21:14:16.789Z,100.00
2023-02-22T21:16:46.698Z,100.00
2023-02-22T21:19:25.678Z,100.00
2023-02-22T21:21:58.722Z,100.00
2023-02-22T21:24:28.277Z,100.00
2023-02-22T21:26:58.782Z,100.00
2023-02-22T21:29:26.718Z,100.00
2023-02-22T21:31:54.374Z,100.00
2023-02-22T21:34:22.492Z,100.00
2023-02-22T21:36:50.637Z,100.00
2023-02-22T21:39:20.748Z,100.00
2023-02-22T21:41:51.212Z,100.00
2023-02-22T21:44:19.054Z,100.00
2023-02-22T21:46:49.979Z,100.00
2023-02-22T21:49:17.795Z,100.00
2023-02-22T21:51:45.041Z,100.00
2023-02-22T21:54:13.079Z,100.00
2023-02-22T21:56:42.954Z,100.00
2023-02-22T21:59:23.562Z,100.00
2023-02-22T22:01:56.237Z,100.00
2023-02-22T22:04:30.051Z,100.00
2023-02-22T22:07:00.106Z,100.00
2023-02-22T22:09:37.800Z,100.00
2023-02-22T22:12:05.637Z,100.00
2023-02-22T22:14:34.860Z,100.00
2023-02-22T22:17:05.524Z,100.00
2023-02-22T22:19:39.379Z,100.00
2023-02-22T22:22:07.905Z,100.00
2023-02-22T22:24:35.149Z,100.00
2023-02-22T22:27:06.627Z,100.00
2023-02-22T22:29:34.558Z,100.00
2023-02-22T22:32:02.886Z,100.00
2023-02-22T22:34:30.292Z,100.00
2023-02-22T22:36:58.661Z,100.00
2023-02-22T22:39:26.892Z,100.00
2023-02-22T22:41:54.120Z,100.00
2023-02-22T22:44:24.314Z,100.00
2023-02-22T22:46:54.930Z,100.00
2023-02-22T22:49:24.090Z,100.00
2023-02-22T22:51:51.332Z,100.00
2023-02-22T22:54:18.477Z,100.00
2023-02-22T22:56:45.513Z,100.00
2023-02-22T22:59:13.537Z,100.00
2023-02-22T23:01:45.017Z,100.00
2023-02-22T23:04:18.890Z,100.00
2023-02-22T23:06:51.090Z,100.00
2023-02-22T23:09:30.456Z,100.00
2023-02-22T23:12:24.212Z,100.00
2023-02-22T23:14:52.176Z,100.00
2023-02-22T23:17:31.441Z,100.00
2023-02-22T23:19:58.625Z,100.00
2023-02-22T23:22:25.623Z,100.00
2023-02-22T23:24:52.694Z,100.00
2023-02-22T23:27:19.666Z,100.00
2023-02-22T23:29:47.128Z,100.00
2023-02-22T23:32:14.553Z,100.00
2023-02-22T23:34:41.927Z,100.00
2023-02-22T23:37:10.652Z,100.00
2023-02-22T23:39:38.110Z,100.00
2023-02-22T23:42:05.255Z,100.00
2023-02-22T23:44:32.616Z,100.00
2023-02-22T23:46:59.870Z,100.00
2023-02-22T23:49:38.008Z,100.00
2023-02-22T23:52:08.282Z,100.00
2023-02-22T23:54:40.389Z,100.00
2023-02-22T23:57:08.974Z,100.00
2023-02-22T23:59:37.375Z,100.00
